createdAt,value
2018-08-14T00:01:29.862Z,38.50
2018-08-14T00:04:02.817Z,16.10
2018-08-14T00:06:35.269Z,39.20
2018-08-14T00:09:07.289Z,38.98
2018-08-14T00:14:51.907Z,36.70
2018-08-14T00:17:25.998Z,38.58
2018-08-14T00:19:57.630Z,38.10
2018-08-14T00:22:30.370Z,17.07
2018-08-14T00:25:04.727Z,43.33
2018-08-14T00:27:35.023Z,39.65
2018-08-14T00:30:09.632Z,32.70
2018-08-14T00:32:40.427Z,39.83
2018-08-14T00:35:11.218Z,39.53
2018-08-14T00:37:42.693Z,39.48
2018-08-14T00:40:19.038Z,98.50
2018-08-14T00:42:55.210Z,43.33
2018-08-14T00:45:25.455Z,40.40
2018-08-14T00:47:56.117Z,28.15
2018-08-14T00:50:28.135Z,42.17
2018-08-14T00:53:01.308Z,44.35
2018-08-14T00:55:34.766Z,42.80
2018-08-14T00:58:07.302Z,22.62
2018-08-14T01:00:40.815Z,32.67
2018-08-14T01:03:13.700Z,19.15
2018-08-14T01:05:45.208Z,48.40
2018-08-14T01:08:16.631Z,21.17
2018-08-14T01:10:49.246Z,43.55
2018-08-14T01:13:19.303Z,38.08
2018-08-14T01:15:52.029Z,45.12
2018-08-14T01:18:26.159Z,41.37
2018-08-14T01:20:56.890Z,44.95
2018-08-14T01:23:29.224Z,45.65
2018-08-14T01:26:02.067Z,42.50
2018-08-14T01:28:35.711Z,47.70
2018-08-14T01:31:09.594Z,45.45
2018-08-14T01:33:41.798Z,30.72
2018-08-14T01:36:15.019Z,42.50
2018-08-14T01:38:47.072Z,46.35
2018-08-14T01:41:18.160Z,34.08
2018-08-14T01:43:48.371Z,47.15
2018-08-14T01:46:18.694Z,41.45
2018-08-14T01:48:50.609Z,44.60
2018-08-14T01:51:21.793Z,43.90
2018-08-14T01:53:54.099Z,46.68
2018-08-14T01:56:25.305Z,42.60
2018-08-14T01:58:55.881Z,47.58
2018-08-14T02:01:26.527Z,40.25
2018-08-14T02:04:01.129Z,48.20
2018-08-14T02:06:31.250Z,48.40
2018-08-14T02:09:01.793Z,39.13
2018-08-14T02:11:33.708Z,35.20
2018-08-14T02:14:06.008Z,29.27
2018-08-14T02:16:36.190Z,44.40
2018-08-14T02:19:06.491Z,48.70
2018-08-14T02:21:36.854Z,48.73
2018-08-14T02:24:08.738Z,40.48
2018-08-14T02:26:41.618Z,48.58
2018-08-14T02:29:12.329Z,30.15
2018-08-14T02:31:42.572Z,45.03
2018-08-14T02:34:15.662Z,35.05
2018-08-14T02:36:46.917Z,47.45
2018-08-14T02:39:17.938Z,40.08
2018-08-14T02:41:48.479Z,44.42
2018-08-14T02:44:19.274Z,41.33
2018-08-14T02:46:51.170Z,42.53
2018-08-14T02:49:23.850Z,43.92
2018-08-14T02:51:58.644Z,21.33
2018-08-14T02:54:34.552Z,20.00
2018-08-14T02:57:05.015Z,30.82
2018-08-14T02:59:37.237Z,34.53
2018-08-14T03:02:08.480Z,36.77
2018-08-14T03:04:40.702Z,34.98
2018-08-14T03:07:11.570Z,35.10
2018-08-14T03:09:42.304Z,36.77
2018-08-14T03:12:13.959Z,36.05
2018-08-14T03:15:01.307Z,34.65
2018-08-14T03:17:34.125Z,36.35
2018-08-14T03:20:07.668Z,37.65
2018-08-14T03:22:38.189Z,40.05
2018-08-14T03:25:09.970Z,22.10
2018-08-14T03:27:41.295Z,38.48
2018-08-14T03:30:13.798Z,36.70
2018-08-14T03:32:47.910Z,39.00
2018-08-14T03:35:22.369Z,32.48
2018-08-14T03:37:56.329Z,38.17
2018-08-14T03:40:28.693Z,36.83
2018-08-14T03:43:00.961Z,32.63
2018-08-14T03:45:37.791Z,37.80
2018-08-14T03:48:09.237Z,35.48
2018-08-14T03:50:42.043Z,32.35
2018-08-14T03:53:12.303Z,34.55
2018-08-14T03:55:45.231Z,19.12
2018-08-14T03:58:17.116Z,24.10
2018-08-14T04:00:50.000Z,29.25
2018-08-14T04:03:21.100Z,33.15
2018-08-14T04:05:55.025Z,25.05
2018-08-14T04:08:28.108Z,29.98
2018-08-14T04:11:01.185Z,28.92
2018-08-14T04:13:35.045Z,31.42
2018-08-14T04:16:05.939Z,31.27
2018-08-14T04:18:36.413Z,28.85
2018-08-14T04:24:00.022Z,25.80
2018-08-14T04:26:30.198Z,26.42
2018-08-14T04:29:03.737Z,28.25
2018-08-14T04:31:38.564Z,29.40
2018-08-14T04:34:12.187Z,26.90
2018-08-14T04:36:44.558Z,24.95
2018-08-14T04:39:15.474Z,28.98
2018-08-14T04:41:46.112Z,27.02
2018-08-14T04:44:16.375Z,19.07
2018-08-14T04:46:50.090Z,28.20
2018-08-14T04:49:25.656Z,18.55
2018-08-14T04:52:00.430Z,24.95
2018-08-14T04:54:31.083Z,25.43
2018-08-14T04:57:02.659Z,24.25
2018-08-14T04:59:32.763Z,15.98
2018-08-14T05:02:08.763Z,24.52
2018-08-14T05:04:41.764Z,26.02
2018-08-14T05:07:12.484Z,23.70
2018-08-14T05:09:43.569Z,24.05
2018-08-14T05:12:14.454Z,24.95
2018-08-14T05:14:48.926Z,24.95
2018-08-14T05:17:22.217Z,23.98
2018-08-14T05:19:52.531Z,23.75
2018-08-14T05:22:23.366Z,20.82
2018-08-14T05:24:57.029Z,20.68
2018-08-14T05:27:30.568Z,14.47
2018-08-14T05:30:00.959Z,12.75
2018-08-14T05:32:34.352Z,23.07
2018-08-14T05:35:08.095Z,19.55
2018-08-14T05:37:42.232Z,18.05
2018-08-14T05:40:16.396Z,20.45
2018-08-14T05:42:46.953Z,18.87
2018-08-14T05:45:18.362Z,22.67
2018-08-14T05:47:49.501Z,22.98
2018-08-14T05:50:22.428Z,20.37
2018-08-14T05:52:54.339Z,11.50
2018-08-14T05:55:31.222Z,14.65
2018-08-14T05:58:01.759Z,18.98
2018-08-14T06:00:33.414Z,18.30
2018-08-14T06:03:04.697Z,16.80
2018-08-14T06:05:37.442Z,17.67
2018-08-14T06:08:11.917Z,18.50
2018-08-14T06:10:43.159Z,21.75
2018-08-14T06:13:14.519Z,16.75
2018-08-14T06:15:47.744Z,15.03
2018-08-14T06:18:20.981Z,16.55
2018-08-14T06:20:54.941Z,16.73
2018-08-14T06:25:12.822Z,14.63
2018-08-14T06:27:46.289Z,14.07
2018-08-14T06:30:21.944Z,11.45
2018-08-14T06:32:54.358Z,8.83
2018-08-14T06:35:26.882Z,11.30
2018-08-14T06:37:57.966Z,15.72
2018-08-14T06:40:29.907Z,14.33
2018-08-14T06:43:02.254Z,14.25
2018-08-14T06:45:37.559Z,14.25
2018-08-14T06:48:11.583Z,16.42
2018-08-14T06:50:42.331Z,14.50
2018-08-14T06:53:14.875Z,14.80
2018-08-14T06:55:45.831Z,12.98
2018-08-14T06:58:15.743Z,13.93
2018-08-14T07:00:46.523Z,12.58
2018-08-14T07:03:17.546Z,14.10
2018-08-14T07:05:51.933Z,10.93
2018-08-14T07:08:24.964Z,13.00
2018-08-14T07:10:55.826Z,13.13
2018-08-14T07:13:27.619Z,12.20
2018-08-14T07:15:58.010Z,13.50
2018-08-14T07:18:29.283Z,15.98
2018-08-14T07:21:02.035Z,12.73
2018-08-14T07:23:33.515Z,11.80
2018-08-14T07:26:04.584Z,12.75
2018-08-14T07:28:35.175Z,12.82
2018-08-14T07:31:05.684Z,10.53
2018-08-14T07:33:36.985Z,13.93
2018-08-14T07:36:09.099Z,13.95
2018-08-14T07:38:40.916Z,10.05
2018-08-14T07:41:12.974Z,13.03
2018-08-14T07:43:45.185Z,14.07
2018-08-14T07:46:19.875Z,15.25
2018-08-14T07:48:52.235Z,15.20
2018-08-14T07:51:23.424Z,14.50
2018-08-14T08:06:48.998Z,12.60
2018-08-14T08:09:21.916Z,13.25
2018-08-14T08:11:54.997Z,9.73
2018-08-14T08:14:28.253Z,12.37
2018-08-14T08:17:00.306Z,11.03
2018-08-14T08:19:33.455Z,11.90
2018-08-14T08:22:06.297Z,11.65
2018-08-14T08:24:39.305Z,11.25
2018-08-14T08:27:10.463Z,10.08
2018-08-14T08:29:42.822Z,8.65
2018-08-14T08:32:20.280Z,11.75
2018-08-14T08:34:54.661Z,10.48
2018-08-14T08:40:37.959Z,10.13
2018-08-14T08:43:10.425Z,10.15
2018-08-14T08:45:59.279Z,6.72
2018-08-14T08:51:19.575Z,10.30
2018-08-14T08:53:52.626Z,11.70
2018-08-14T08:56:25.355Z,11.12
2018-08-14T08:58:57.552Z,9.83
2018-08-14T09:01:33.331Z,10.03
2018-08-14T09:04:05.196Z,10.03
2018-08-14T09:06:37.680Z,10.23
2018-08-14T09:12:23.859Z,9.70
2018-08-14T09:15:10.304Z,8.98
2018-08-14T09:17:57.260Z,8.25
2018-08-14T09:23:45.658Z,10.32
2018-08-14T09:55:01.652Z,8.85
2018-08-14T09:57:41.833Z,6.92
2018-08-14T10:00:35.130Z,9.50
2018-08-14T10:03:19.396Z,9.05
2018-08-14T10:05:58.929Z,10.88
2018-08-14T10:08:30.609Z,11.53
2018-08-14T10:11:02.937Z,5.15
2018-08-14T10:13:35.818Z,6.58
2018-08-14T10:16:07.506Z,9.45
2018-08-14T10:18:38.899Z,12.18
2018-08-14T10:21:10.112Z,12.30
2018-08-14T10:23:44.313Z,15.45
2018-08-14T10:26:16.047Z,13.93
2018-08-14T10:30:17.681Z,22.75
2018-08-14T10:32:49.297Z,18.02
2018-08-14T10:35:23.165Z,13.13
2018-08-14T10:37:54.856Z,14.05
2018-08-14T10:40:26.368Z,17.23
2018-08-14T10:42:57.150Z,14.13
2018-08-14T10:45:27.857Z,13.28
2018-08-14T10:48:00.403Z,13.62
2018-08-14T10:50:34.646Z,13.80
2018-08-14T10:53:08.141Z,10.03
2018-08-14T10:55:42.609Z,13.50
2018-08-14T10:58:22.621Z,14.03
2018-08-14T11:00:55.021Z,14.25
2018-08-14T11:03:31.190Z,15.45
2018-08-14T11:06:02.454Z,15.90
2018-08-14T11:08:32.501Z,16.67
2018-08-14T11:11:08.473Z,16.40
2018-08-14T11:13:39.327Z,15.35
2018-08-14T11:16:10.402Z,13.05
2018-08-14T11:18:51.375Z,14.83
2018-08-14T11:21:23.294Z,12.43
2018-08-14T11:23:53.575Z,12.85
2018-08-14T11:26:23.931Z,13.48
2018-08-14T11:28:54.830Z,17.02
2018-08-14T11:31:27.113Z,17.55
2018-08-14T11:34:00.288Z,17.60
2018-08-14T11:36:34.893Z,17.80
2018-08-14T11:39:07.461Z,18.15
2018-08-14T11:41:48.705Z,17.85
2018-08-14T11:44:19.626Z,16.80
2018-08-14T11:46:50.695Z,15.65
2018-08-14T11:49:21.079Z,13.10
2018-08-14T11:51:52.020Z,8.78
2018-08-14T11:54:22.764Z,6.20
2018-08-14T11:56:54.001Z,6.37
2018-08-14T11:59:24.321Z,5.95
2018-08-14T12:01:55.303Z,5.33
2018-08-14T12:04:26.395Z,5.60
2018-08-14T12:06:57.387Z,5.55
2018-08-14T12:09:27.637Z,6.55
2018-08-14T12:11:58.185Z,5.35
2018-08-14T12:14:30.833Z,5.53
2018-08-14T12:17:01.299Z,5.20
2018-08-14T12:19:31.518Z,3.95
2018-08-14T12:22:01.942Z,5.72
2018-08-14T12:24:32.437Z,5.03
2018-08-14T12:27:04.902Z,4.90
2018-08-14T12:29:35.273Z,4.67
2018-08-14T12:32:06.575Z,4.80
2018-08-14T12:34:40.028Z,5.53
2018-08-14T12:37:16.814Z,7.60
2018-08-14T12:39:55.101Z,5.37
2018-08-14T12:42:28.246Z,5.58
2018-08-14T12:45:00.053Z,5.25
2018-08-14T12:47:35.621Z,5.40
2018-08-14T12:50:09.182Z,6.37
2018-08-14T12:52:48.160Z,6.87
2018-08-14T12:55:23.699Z,6.55
2018-08-14T12:58:04.747Z,7.50
2018-08-14T13:00:38.875Z,6.60
2018-08-14T13:03:13.324Z,6.08
2018-08-14T13:05:45.967Z,6.70
2018-08-14T13:08:17.232Z,7.28
2018-08-14T13:10:49.058Z,6.90
2018-08-14T13:13:22.450Z,7.62
2018-08-14T13:15:54.161Z,8.48
2018-08-14T13:18:27.291Z,7.55
2018-08-14T13:20:58.075Z,8.78
2018-08-14T13:23:30.532Z,8.18
2018-08-14T13:26:08.816Z,6.97
2018-08-14T13:28:40.221Z,6.33
2018-08-14T13:31:12.841Z,6.90
2018-08-14T13:33:43.781Z,7.10
2018-08-14T13:36:15.778Z,6.25
2018-08-14T13:38:47.020Z,7.25
2018-08-14T13:41:19.370Z,6.72
2018-08-14T13:43:50.763Z,7.65
2018-08-14T13:46:23.547Z,7.50
2018-08-14T13:48:54.868Z,7.92
2018-08-14T13:51:28.100Z,8.10
2018-08-14T13:53:58.854Z,7.90
2018-08-14T13:56:31.088Z,7.62
2018-08-14T13:59:03.087Z,7.75
2018-08-14T14:01:34.708Z,8.48
2018-08-14T14:04:05.291Z,9.68
2018-08-14T14:06:35.800Z,9.18
2018-08-14T14:09:12.102Z,7.67
2018-08-14T14:11:42.662Z,9.58
2018-08-14T14:14:12.919Z,9.68
2018-08-14T14:16:43.663Z,9.55
2018-08-14T14:19:15.348Z,8.90
2018-08-14T14:21:45.943Z,7.58
2018-08-14T14:24:17.428Z,9.45
2018-08-14T14:26:50.630Z,10.08
2018-08-14T14:29:24.916Z,10.63
2018-08-14T14:31:57.169Z,10.68
2018-08-14T14:34:31.985Z,9.25
2018-08-14T14:37:03.610Z,11.63
2018-08-14T14:39:36.581Z,22.40
2018-08-14T14:42:09.116Z,11.12
2018-08-14T14:44:40.523Z,10.53
2018-08-14T14:47:12.594Z,10.05
2018-08-14T14:49:43.931Z,10.18
2018-08-14T14:52:17.717Z,7.00
2018-08-14T14:54:47.626Z,10.82
2018-08-14T14:57:18.520Z,9.53
2018-08-14T14:59:49.468Z,8.83
2018-08-14T15:02:19.789Z,13.28
2018-08-14T15:04:50.000Z,8.83
2018-08-14T15:07:20.369Z,8.10
2018-08-14T15:09:50.755Z,8.18
2018-08-14T15:12:21.177Z,8.43
2018-08-14T15:14:51.753Z,8.05
2018-08-14T15:17:22.870Z,7.92
2018-08-14T15:19:54.447Z,5.55
2018-08-14T15:22:25.693Z,8.85
2018-08-14T15:24:56.337Z,7.50
2018-08-14T15:27:27.213Z,7.53
2018-08-14T15:30:08.613Z,6.97
2018-08-14T15:32:38.848Z,6.92
2018-08-14T15:35:10.063Z,6.90
2018-08-14T15:37:43.938Z,6.67
2018-08-14T15:40:16.249Z,7.58
2018-08-14T15:42:48.651Z,6.08
2018-08-14T15:45:19.720Z,5.08
2018-08-14T15:51:11.530Z,6.70
2018-08-14T15:53:51.976Z,6.72
2018-08-14T15:56:49.037Z,6.30
2018-08-14T15:59:20.176Z,5.10
2018-08-14T16:01:52.579Z,6.33
2018-08-14T16:04:24.284Z,4.78
2018-08-14T16:06:54.933Z,5.08
2018-08-14T16:09:38.612Z,4.08
2018-08-14T16:12:16.676Z,4.90
2018-08-14T16:14:49.525Z,4.95
2018-08-14T16:17:20.303Z,4.15
2018-08-14T16:19:51.064Z,3.75
2018-08-14T16:22:21.503Z,5.17
2018-08-14T16:24:57.910Z,4.95
2018-08-14T16:27:29.121Z,4.47
2018-08-14T16:30:00.130Z,5.40
2018-08-14T16:32:33.186Z,5.95
2018-08-14T16:35:04.367Z,5.87
2018-08-14T16:37:38.018Z,5.62
2018-08-14T16:40:10.707Z,5.58
2018-08-14T16:42:41.932Z,5.95
2018-08-14T16:45:14.114Z,5.75
2018-08-14T16:47:48.514Z,9.00
2018-08-14T16:50:23.231Z,6.05
2018-08-14T16:52:55.850Z,6.25
2018-08-14T16:55:30.955Z,5.47
2018-08-14T16:58:02.486Z,5.95
2018-08-14T17:00:45.292Z,6.65
2018-08-14T17:03:20.062Z,5.78
2018-08-14T17:05:58.382Z,6.47
2018-08-14T17:08:55.035Z,5.85
2018-08-14T17:14:41.372Z,6.90
2018-08-14T17:20:22.640Z,7.40
2018-08-14T17:23:04.657Z,8.10
2018-08-14T17:25:45.218Z,7.60
2018-08-14T17:28:20.999Z,6.58
2018-08-14T17:30:59.085Z,6.67
2018-08-14T17:33:35.170Z,8.38
2018-08-14T17:36:08.945Z,7.00
2018-08-14T17:38:41.626Z,7.55
2018-08-14T17:44:24.214Z,7.28
2018-08-14T17:47:10.743Z,7.35
2018-08-14T17:49:51.855Z,7.15
2018-08-14T17:52:24.198Z,7.53
2018-08-14T17:55:00.470Z,7.60
2018-08-14T17:57:35.913Z,8.83
2018-08-14T18:00:20.887Z,6.85
2018-08-14T18:03:07.297Z,6.30
2018-08-14T18:05:53.476Z,6.55
2018-08-14T18:11:26.167Z,6.42
2018-08-14T18:16:38.277Z,10.63
2018-08-14T18:19:12.384Z,7.15
2018-08-14T18:21:43.426Z,7.10
2018-08-14T18:24:14.589Z,6.90
2018-08-14T18:26:48.896Z,6.85
2018-08-14T18:29:24.969Z,6.03
2018-08-14T18:32:08.363Z,6.28
2018-08-14T18:34:43.895Z,7.15
2018-08-14T18:37:15.702Z,6.00
2018-08-14T18:39:48.650Z,6.03
2018-08-14T18:42:20.337Z,6.47
2018-08-14T18:44:54.141Z,5.83
2018-08-14T18:47:26.943Z,6.60
2018-08-14T18:49:59.165Z,6.72
2018-08-14T18:52:31.449Z,7.30
2018-08-14T18:55:03.920Z,7.60
2018-08-14T18:57:48.137Z,7.60
2018-08-14T19:00:28.261Z,7.53
2018-08-14T19:03:06.472Z,7.83
2018-08-14T19:05:38.741Z,8.65
2018-08-14T19:08:10.915Z,8.53
2018-08-14T19:10:47.611Z,9.08
2018-08-14T19:13:22.376Z,9.08
2018-08-14T19:15:55.451Z,9.43
2018-08-14T19:18:27.621Z,9.93
2018-08-14T19:36:20.204Z,9.03
2018-08-14T20:13:47.505Z,4.90
2018-08-14T20:16:21.754Z,5.00
2018-08-14T20:18:58.348Z,4.60
2018-08-14T20:21:32.948Z,4.75
2018-08-14T20:24:09.540Z,4.85
2018-08-14T20:27:00.775Z,4.72
2018-08-14T20:29:47.202Z,5.70
2018-08-14T20:32:18.547Z,5.47
2018-08-14T20:34:49.590Z,6.12
2018-08-14T20:37:20.368Z,5.83
2018-08-14T20:42:35.081Z,5.12
2018-08-14T20:48:11.312Z,4.65
2018-08-14T20:50:45.228Z,4.58
2018-08-14T20:53:17.719Z,4.37
2018-08-14T20:55:54.078Z,2.90
2018-08-14T20:58:26.652Z,3.37
2018-08-14T21:04:01.336Z,4.28
2018-08-14T21:06:36.426Z,4.45
2018-08-14T21:09:12.757Z,4.85
2018-08-14T21:11:47.317Z,4.87
2018-08-14T21:14:22.003Z,4.83
2018-08-14T21:17:03.554Z,4.05
2018-08-14T21:22:14.649Z,4.17
2018-08-14T21:24:45.861Z,3.67
2018-08-14T21:27:17.175Z,3.70
2018-08-14T21:29:54.831Z,3.65
2018-08-14T21:32:25.821Z,2.90
2018-08-14T21:34:57.812Z,2.27
2018-08-14T21:37:31.600Z,2.77
2018-08-14T21:40:06.722Z,2.10
2018-08-14T21:42:44.625Z,1.90
2018-08-14T21:45:19.861Z,2.33
2018-08-14T21:47:55.134Z,1.07
2018-08-14T21:50:28.572Z,1.45
2018-08-14T21:56:11.869Z,1.75
2018-08-14T21:58:44.507Z,1.85
2018-08-14T22:01:18.450Z,2.10
2018-08-14T22:03:54.097Z,1.20
2018-08-14T22:06:26.785Z,2.00
2018-08-14T22:09:00.380Z,1.70
2018-08-14T22:11:38.622Z,1.52
2018-08-14T22:14:11.791Z,2.10
2018-08-14T22:16:48.251Z,2.10
2018-08-14T22:19:21.304Z,2.10
2018-08-14T22:22:04.414Z,1.25
2018-08-14T22:24:41.095Z,2.20
2018-08-14T22:27:19.209Z,1.70
2018-08-14T22:29:56.430Z,2.10
2018-08-14T22:32:35.214Z,1.80
2018-08-14T22:35:18.783Z,2.15
2018-08-14T22:37:55.766Z,2.20
2018-08-14T22:40:32.104Z,2.40
2018-08-14T22:43:06.916Z,2.22
2018-08-14T22:45:45.912Z,2.30
2018-08-14T22:50:14.125Z,1.55
2018-08-14T22:52:52.342Z,2.50
2018-08-14T22:55:28.744Z,2.20
2018-08-14T22:58:01.630Z,1.22
2018-08-14T23:00:35.900Z,2.40
2018-08-14T23:03:07.691Z,2.30
2018-08-14T23:05:40.232Z,2.40
2018-08-14T23:08:13.750Z,2.27
2018-08-14T23:10:50.563Z,2.40
2018-08-14T23:13:23.249Z,2.55
2018-08-14T23:15:59.994Z,2.47
2018-08-14T23:18:31.815Z,2.27
2018-08-14T23:21:06.478Z,1.90
2018-08-14T23:23:37.986Z,2.22
2018-08-14T23:26:08.807Z,2.70
2018-08-14T23:28:45.006Z,1.98
2018-08-14T23:31:16.956Z,2.25
2018-08-14T23:33:49.221Z,2.25
2018-08-14T23:36:21.346Z,2.45
2018-08-14T23:38:52.435Z,3.67
2018-08-14T23:41:26.646Z,2.15
2018-08-14T23:44:03.072Z,1.92
2018-08-14T23:46:39.484Z,2.45
2018-08-14T23:49:17.748Z,2.02
2018-08-14T23:51:52.629Z,2.20
2018-08-14T23:54:25.323Z,2.25
2018-08-14T23:56:56.642Z,2.00
2018-08-14T23:59:28.182Z,2.17
